sensor_id;sensor_type;location;lat;lon;timestamp;P1;durP1;ratioP1;P2;durP2;ratioP2
24084;SDS011;12268;52.110;5.548;2022-12-28T00:01:23;7.80;;;4.30;;
24084;SDS011;12268;52.110;5.548;2022-12-28T00:03:50;7.55;;;4.18;;
24084;SDS011;12268;52.110;5.548;2022-12-28T00:06:18;10.57;;;4.85;;
24084;SDS011;12268;52.110;5.548;2022-12-28T00:08:44;9.55;;;3.80;;
24084;SDS011;12268;52.110;5.548;2022-12-28T00:11:11;7.22;;;3.90;;
24084;SDS011;12268;52.110;5.548;2022-12-28T00:13:39;6.88;;;3.92;;
24084;SDS011;12268;52.110;5.548;2022-12-28T00:16:05;9.73;;;4.03;;
24084;SDS011;12268;52.110;5.548;2022-12-28T00:18:43;8.95;;;4.10;;
24084;SDS011;12268;52.110;5.548;2022-12-28T00:21:08;7.55;;;4.25;;
24084;SDS011;12268;52.110;5.548;2022-12-28T00:23:34;10.00;;;4.70;;
24084;SDS011;12268;52.110;5.548;2022-12-28T00:26:06;11.35;;;4.20;;
24084;SDS011;12268;52.110;5.548;2022-12-28T00:28:36;8.10;;;4.55;;
24084;SDS011;12268;52.110;5.548;2022-12-28T00:31:03;9.05;;;4.07;;
24084;SDS011;12268;52.110;5.548;2022-12-28T00:33:28;8.02;;;4.28;;
24084;SDS011;12268;52.110;5.548;2022-12-28T00:35:55;10.32;;;3.92;;
24084;SDS011;12268;52.110;5.548;2022-12-28T00:38:22;8.20;;;4.28;;
24084;SDS011;12268;52.110;5.548;2022-12-28T00:40:48;10.15;;;4.55;;
24084;SDS011;12268;52.110;5.548;2022-12-28T00:43:13;7.90;;;4.32;;
24084;SDS011;12268;52.110;5.548;2022-12-28T00:45:42;11.00;;;4.55;;
24084;SDS011;12268;52.110;5.548;2022-12-28T00:48:09;10.23;;;4.50;;
24084;SDS011;12268;52.110;5.548;2022-12-28T00:50:34;11.07;;;4.07;;
24084;SDS011;12268;52.110;5.548;2022-12-28T00:53:00;10.38;;;4.38;;
24084;SDS011;12268;52.110;5.548;2022-12-28T00:55:25;9.57;;;4.60;;
24084;SDS011;12268;52.110;5.548;2022-12-28T00:57:51;13.05;;;4.40;;
24084;SDS011;12268;52.110;5.548;2022-12-28T01:00:16;10.07;;;4.55;;
24084;SDS011;12268;52.110;5.548;2022-12-28T01:02:42;9.27;;;4.32;;
24084;SDS011;12268;52.110;5.548;2022-12-28T01:05:07;8.55;;;4.35;;
24084;SDS011;12268;52.110;5.548;2022-12-28T01:07:33;9.73;;;4.50;;
24084;SDS011;12268;52.110;5.548;2022-12-28T01:09:59;6.60;;;4.15;;
24084;SDS011;12268;52.110;5.548;2022-12-28T01:12:24;7.63;;;4.30;;
24084;SDS011;12268;52.110;5.548;2022-12-28T01:14:50;11.35;;;4.70;;
24084;SDS011;12268;52.110;5.548;2022-12-28T01:17:15;7.80;;;4.65;;
24084;SDS011;12268;52.110;5.548;2022-12-28T01:19:41;9.13;;;4.55;;
24084;SDS011;12268;52.110;5.548;2022-12-28T01:22:06;10.93;;;4.93;;
24084;SDS011;12268;52.110;5.548;2022-12-28T01:24:34;9.48;;;4.75;;
24084;SDS011;12268;52.110;5.548;2022-12-28T01:26:59;12.20;;;4.88;;
24084;SDS011;12268;52.110;5.548;2022-12-28T01:29:25;6.82;;;4.20;;
24084;SDS011;12268;52.110;5.548;2022-12-28T01:31:50;9.07;;;4.95;;
24084;SDS011;12268;52.110;5.548;2022-12-28T01:34:16;10.27;;;4.68;;
24084;SDS011;12268;52.110;5.548;2022-12-28T01:36:41;11.32;;;4.70;;
24084;SDS011;12268;52.110;5.548;2022-12-28T01:39:07;9.05;;;4.03;;
24084;SDS011;12268;52.110;5.548;2022-12-28T01:41:37;6.07;;;3.80;;
24084;SDS011;12268;52.110;5.548;2022-12-28T01:52:14;7.80;;;3.83;;
24084;SDS011;12268;52.110;5.548;2022-12-28T01:54:51;9.32;;;4.53;;
24084;SDS011;12268;52.110;5.548;2022-12-28T01:57:22;9.50;;;4.55;;
24084;SDS011;12268;52.110;5.548;2022-12-28T02:00:27;8.07;;;4.00;;
24084;SDS011;12268;52.110;5.548;2022-12-28T02:02:53;7.97;;;3.72;;
24084;SDS011;12268;52.110;5.548;2022-12-28T02:05:29;7.63;;;5.13;;
24084;SDS011;12268;52.110;5.548;2022-12-28T02:08:08;5.80;;;3.58;;
24084;SDS011;12268;52.110;5.548;2022-12-28T02:10:44;8.80;;;4.30;;
24084;SDS011;12268;52.110;5.548;2022-12-28T02:13:12;9.15;;;3.80;;
24084;SDS011;12268;52.110;5.548;2022-12-28T02:15:39;6.55;;;4.50;;
24084;SDS011;12268;52.110;5.548;2022-12-28T02:18:04;8.15;;;4.10;;
24084;SDS011;12268;52.110;5.548;2022-12-28T02:20:33;10.60;;;4.20;;
24084;SDS011;12268;52.110;5.548;2022-12-28T02:23:26;8.60;;;5.15;;
24084;SDS011;12268;52.110;5.548;2022-12-28T02:31:40;8.70;;;4.72;;
24084;SDS011;12268;52.110;5.548;2022-12-28T02:34:27;9.23;;;4.50;;
24084;SDS011;12268;52.110;5.548;2022-12-28T02:39:30;7.68;;;4.88;;
24084;SDS011;12268;52.110;5.548;2022-12-28T02:42:03;10.05;;;5.03;;
24084;SDS011;12268;52.110;5.548;2022-12-28T02:44:30;10.23;;;5.15;;
24084;SDS011;12268;52.110;5.548;2022-12-28T02:47:14;7.47;;;4.72;;
24084;SDS011;12268;52.110;5.548;2022-12-28T02:49:59;10.25;;;4.55;;
24084;SDS011;12268;52.110;5.548;2022-12-28T02:53:33;10.73;;;4.93;;
24084;SDS011;12268;52.110;5.548;2022-12-28T02:56:05;7.10;;;4.75;;
24084;SDS011;12268;52.110;5.548;2022-12-28T03:04:28;6.95;;;4.32;;
24084;SDS011;12268;52.110;5.548;2022-12-28T03:06:58;6.85;;;4.15;;
24084;SDS011;12268;52.110;5.548;2022-12-28T03:12:47;7.38;;;5.10;;
24084;SDS011;12268;52.110;5.548;2022-12-28T03:15:29;8.07;;;4.47;;
24084;SDS011;12268;52.110;5.548;2022-12-28T03:18:00;8.70;;;5.97;;
24084;SDS011;12268;52.110;5.548;2022-12-28T03:20:49;9.90;;;5.65;;
24084;SDS011;12268;52.110;5.548;2022-12-28T03:23:34;11.23;;;5.75;;
24084;SDS011;12268;52.110;5.548;2022-12-28T03:26:23;8.88;;;5.18;;
24084;SDS011;12268;52.110;5.548;2022-12-28T03:29:08;7.72;;;5.00;;
24084;SDS011;12268;52.110;5.548;2022-12-28T03:31:56;9.10;;;5.95;;
24084;SDS011;12268;52.110;5.548;2022-12-28T03:34:22;9.70;;;5.90;;
24084;SDS011;12268;52.110;5.548;2022-12-28T03:42:26;9.27;;;6.18;;
24084;SDS011;12268;52.110;5.548;2022-12-28T03:45:24;16.25;;;6.35;;
24084;SDS011;12268;52.110;5.548;2022-12-28T03:47:55;9.43;;;5.97;;
24084;SDS011;12268;52.110;5.548;2022-12-28T03:50:22;11.73;;;7.38;;
24084;SDS011;12268;52.110;5.548;2022-12-28T03:52:48;11.65;;;6.65;;
24084;SDS011;12268;52.110;5.548;2022-12-28T03:55:15;9.95;;;6.53;;
24084;SDS011;12268;52.110;5.548;2022-12-28T03:57:41;11.20;;;7.50;;
24084;SDS011;12268;52.110;5.548;2022-12-28T04:00:07;14.75;;;8.07;;
24084;SDS011;12268;52.110;5.548;2022-12-28T04:02:34;12.15;;;7.18;;
24084;SDS011;12268;52.110;5.548;2022-12-28T04:05:00;13.80;;;8.05;;
24084;SDS011;12268;52.110;5.548;2022-12-28T04:07:26;11.40;;;7.03;;
24084;SDS011;12268;52.110;5.548;2022-12-28T04:09:51;10.43;;;7.47;;
24084;SDS011;12268;52.110;5.548;2022-12-28T04:12:17;10.20;;;6.53;;
24084;SDS011;12268;52.110;5.548;2022-12-28T04:14:42;10.70;;;6.82;;
24084;SDS011;12268;52.110;5.548;2022-12-28T04:17:08;13.15;;;7.25;;
24084;SDS011;12268;52.110;5.548;2022-12-28T04:19:33;11.88;;;8.27;;
24084;SDS011;12268;52.110;5.548;2022-12-28T04:21:59;15.48;;;8.38;;
24084;SDS011;12268;52.110;5.548;2022-12-28T04:24:24;14.02;;;8.65;;
24084;SDS011;12268;52.110;5.548;2022-12-28T04:26:50;14.15;;;8.43;;
24084;SDS011;12268;52.110;5.548;2022-12-28T04:29:15;14.18;;;8.45;;
24084;SDS011;12268;52.110;5.548;2022-12-28T04:31:41;12.93;;;8.30;;
24084;SDS011;12268;52.110;5.548;2022-12-28T04:34:06;12.45;;;7.85;;
24084;SDS011;12268;52.110;5.548;2022-12-28T04:36:32;16.02;;;7.90;;
24084;SDS011;12268;52.110;5.548;2022-12-28T04:38:58;16.00;;;9.25;;
24084;SDS011;12268;52.110;5.548;2022-12-28T04:41:24;13.60;;;7.88;;
24084;SDS011;12268;52.110;5.548;2022-12-28T04:43:50;12.90;;;8.80;;
24084;SDS011;12268;52.110;5.548;2022-12-28T04:46:18;15.50;;;8.93;;
24084;SDS011;12268;52.110;5.548;2022-12-28T04:48:44;13.18;;;9.02;;
24084;SDS011;12268;52.110;5.548;2022-12-28T04:51:30;16.98;;;9.90;;
24084;SDS011;12268;52.110;5.548;2022-12-28T04:53:56;14.10;;;9.32;;
24084;SDS011;12268;52.110;5.548;2022-12-28T04:56:22;13.75;;;9.75;;
24084;SDS011;12268;52.110;5.548;2022-12-28T04:58:53;17.20;;;10.23;;
24084;SDS011;12268;52.110;5.548;2022-12-28T05:01:24;18.33;;;10.13;;
24084;SDS011;12268;52.110;5.548;2022-12-28T05:03:51;14.15;;;9.15;;
24084;SDS011;12268;52.110;5.548;2022-12-28T05:06:18;18.55;;;11.55;;
24084;SDS011;12268;52.110;5.548;2022-12-28T05:08:48;21.13;;;10.75;;
24084;SDS011;12268;52.110;5.548;2022-12-28T05:11:15;16.60;;;10.25;;
24084;SDS011;12268;52.110;5.548;2022-12-28T05:13:42;16.85;;;10.43;;
24084;SDS011;12268;52.110;5.548;2022-12-28T05:16:09;16.98;;;9.98;;
24084;SDS011;12268;52.110;5.548;2022-12-28T05:18:37;16.08;;;10.00;;
24084;SDS011;12268;52.110;5.548;2022-12-28T05:21:04;15.52;;;9.70;;
24084;SDS011;12268;52.110;5.548;2022-12-28T05:23:35;15.48;;;10.20;;
24084;SDS011;12268;52.110;5.548;2022-12-28T05:26:02;18.00;;;10.50;;
24084;SDS011;12268;52.110;5.548;2022-12-28T05:28:29;16.38;;;10.80;;
24084;SDS011;12268;52.110;5.548;2022-12-28T05:30:58;17.83;;;10.88;;
24084;SDS011;12268;52.110;5.548;2022-12-28T05:33:25;13.53;;;8.83;;
24084;SDS011;12268;52.110;5.548;2022-12-28T05:35:52;15.30;;;9.25;;
24084;SDS011;12268;52.110;5.548;2022-12-28T05:38:18;15.50;;;10.20;;
24084;SDS011;12268;52.110;5.548;2022-12-28T05:40:43;15.90;;;9.13;;
24084;SDS011;12268;52.110;5.548;2022-12-28T05:43:08;15.05;;;7.95;;
24084;SDS011;12268;52.110;5.548;2022-12-28T05:45:34;16.67;;;9.98;;
24084;SDS011;12268;52.110;5.548;2022-12-28T05:47:59;18.23;;;10.57;;
24084;SDS011;12268;52.110;5.548;2022-12-28T05:50:25;16.23;;;10.68;;
24084;SDS011;12268;52.110;5.548;2022-12-28T05:52:50;14.02;;;8.60;;
24084;SDS011;12268;52.110;5.548;2022-12-28T05:55:16;15.77;;;10.18;;
24084;SDS011;12268;52.110;5.548;2022-12-28T05:57:42;14.70;;;9.05;;
24084;SDS011;12268;52.110;5.548;2022-12-28T06:00:07;16.90;;;9.57;;
24084;SDS011;12268;52.110;5.548;2022-12-28T06:02:33;17.90;;;10.90;;
24084;SDS011;12268;52.110;5.548;2022-12-28T06:04:59;16.05;;;10.40;;
24084;SDS011;12268;52.110;5.548;2022-12-28T06:07:24;17.60;;;9.93;;
24084;SDS011;12268;52.110;5.548;2022-12-28T06:09:49;17.88;;;10.13;;
24084;SDS011;12268;52.110;5.548;2022-12-28T06:12:15;15.85;;;9.60;;
24084;SDS011;12268;52.110;5.548;2022-12-28T06:14:41;14.23;;;9.70;;
24084;SDS011;12268;52.110;5.548;2022-12-28T06:17:07;15.65;;;9.32;;
24084;SDS011;12268;52.110;5.548;2022-12-28T06:19:32;14.25;;;9.48;;
24084;SDS011;12268;52.110;5.548;2022-12-28T06:21:58;15.60;;;10.05;;
24084;SDS011;12268;52.110;5.548;2022-12-28T06:24:23;19.10;;;10.15;;
24084;SDS011;12268;52.110;5.548;2022-12-28T06:26:49;14.70;;;10.15;;
24084;SDS011;12268;52.110;5.548;2022-12-28T06:29:14;14.13;;;8.23;;
24084;SDS011;12268;52.110;5.548;2022-12-28T06:31:43;14.77;;;10.07;;
24084;SDS011;12268;52.110;5.548;2022-12-28T06:34:11;18.17;;;10.82;;
24084;SDS011;12268;52.110;5.548;2022-12-28T06:36:38;17.98;;;10.40;;
24084;SDS011;12268;52.110;5.548;2022-12-28T06:39:06;14.23;;;9.05;;
24084;SDS011;12268;52.110;5.548;2022-12-28T06:41:33;13.30;;;10.15;;
24084;SDS011;12268;52.110;5.548;2022-12-28T06:43:59;16.65;;;10.50;;
24084;SDS011;12268;52.110;5.548;2022-12-28T06:46:26;14.60;;;10.38;;
24084;SDS011;12268;52.110;5.548;2022-12-28T06:48:53;13.82;;;9.65;;
24084;SDS011;12268;52.110;5.548;2022-12-28T06:51:20;14.30;;;10.25;;
24084;SDS011;12268;52.110;5.548;2022-12-28T06:53:48;14.05;;;8.98;;
24084;SDS011;12268;52.110;5.548;2022-12-28T06:56:15;17.15;;;9.40;;
24084;SDS011;12268;52.110;5.548;2022-12-28T06:58:49;14.65;;;7.82;;
24084;SDS011;12268;52.110;5.548;2022-12-28T07:01:26;14.93;;;9.13;;
24084;SDS011;12268;52.110;5.548;2022-12-28T07:03:54;16.45;;;10.30;;
24084;SDS011;12268;52.110;5.548;2022-12-28T07:06:22;11.88;;;8.15;;
24084;SDS011;12268;52.110;5.548;2022-12-28T07:08:50;16.08;;;9.38;;
24084;SDS011;12268;52.110;5.548;2022-12-28T07:11:22;16.45;;;9.50;;
24084;SDS011;12268;52.110;5.548;2022-12-28T07:13:48;12.50;;;8.95;;
24084;SDS011;12268;52.110;5.548;2022-12-28T07:16:14;14.40;;;8.15;;
24084;SDS011;12268;52.110;5.548;2022-12-28T07:18:41;14.50;;;9.10;;
24084;SDS011;12268;52.110;5.548;2022-12-28T07:21:09;15.38;;;9.00;;
24084;SDS011;12268;52.110;5.548;2022-12-28T07:23:37;14.30;;;8.93;;
24084;SDS011;12268;52.110;5.548;2022-12-28T07:26:04;11.15;;;7.05;;
24084;SDS011;12268;52.110;5.548;2022-12-28T07:28:30;15.32;;;8.70;;
24084;SDS011;12268;52.110;5.548;2022-12-28T07:30:55;12.88;;;8.30;;
24084;SDS011;12268;52.110;5.548;2022-12-28T07:33:21;12.75;;;9.32;;
24084;SDS011;12268;52.110;5.548;2022-12-28T07:35:46;15.02;;;9.20;;
24084;SDS011;12268;52.110;5.548;2022-12-28T07:38:12;13.27;;;9.20;;
24084;SDS011;12268;52.110;5.548;2022-12-28T07:40:37;13.23;;;9.05;;
24084;SDS011;12268;52.110;5.548;2022-12-28T07:43:03;16.27;;;9.63;;
24084;SDS011;12268;52.110;5.548;2022-12-28T07:45:28;13.75;;;9.30;;
24084;SDS011;12268;52.110;5.548;2022-12-28T07:47:54;15.32;;;8.95;;
24084;SDS011;12268;52.110;5.548;2022-12-28T07:50:19;12.88;;;8.35;;
24084;SDS011;12268;52.110;5.548;2022-12-28T07:52:45;17.65;;;10.10;;
24084;SDS011;12268;52.110;5.548;2022-12-28T07:55:10;11.43;;;8.10;;
24084;SDS011;12268;52.110;5.548;2022-12-28T07:57:37;16.35;;;8.18;;
24084;SDS011;12268;52.110;5.548;2022-12-28T08:00:03;13.95;;;9.93;;
24084;SDS011;12268;52.110;5.548;2022-12-28T08:02:30;13.50;;;8.73;;
24084;SDS011;12268;52.110;5.548;2022-12-28T08:04:56;13.98;;;8.82;;
24084;SDS011;12268;52.110;5.548;2022-12-28T08:07:21;15.10;;;9.50;;
24084;SDS011;12268;52.110;5.548;2022-12-28T08:09:47;12.18;;;8.98;;
24084;SDS011;12268;52.110;5.548;2022-12-28T08:12:12;11.77;;;7.80;;
24084;SDS011;12268;52.110;5.548;2022-12-28T08:14:38;16.23;;;9.02;;
24084;SDS011;12268;52.110;5.548;2022-12-28T08:17:03;12.88;;;8.75;;
24084;SDS011;12268;52.110;5.548;2022-12-28T08:19:29;16.02;;;9.85;;
24084;SDS011;12268;52.110;5.548;2022-12-28T08:21:54;13.15;;;8.60;;
24084;SDS011;12268;52.110;5.548;2022-12-28T08:24:20;14.63;;;9.38;;
24084;SDS011;12268;52.110;5.548;2022-12-28T08:26:46;14.75;;;9.60;;
24084;SDS011;12268;52.110;5.548;2022-12-28T08:29:13;14.35;;;8.57;;
24084;SDS011;12268;52.110;5.548;2022-12-28T08:31:41;14.07;;;9.60;;
24084;SDS011;12268;52.110;5.548;2022-12-28T08:34:09;12.73;;;8.10;;
24084;SDS011;12268;52.110;5.548;2022-12-28T08:36:37;13.75;;;9.10;;
24084;SDS011;12268;52.110;5.548;2022-12-28T08:39:03;12.68;;;9.07;;
24084;SDS011;12268;52.110;5.548;2022-12-28T08:41:29;14.10;;;9.07;;
24084;SDS011;12268;52.110;5.548;2022-12-28T08:43:55;12.52;;;9.13;;
24084;SDS011;12268;52.110;5.548;2022-12-28T08:46:29;13.25;;;9.05;;
24084;SDS011;12268;52.110;5.548;2022-12-28T08:48:57;15.40;;;8.93;;
24084;SDS011;12268;52.110;5.548;2022-12-28T08:51:24;15.15;;;9.02;;
24084;SDS011;12268;52.110;5.548;2022-12-28T08:54:01;12.18;;;8.63;;
24084;SDS011;12268;52.110;5.548;2022-12-28T08:56:28;15.60;;;9.88;;
24084;SDS011;12268;52.110;5.548;2022-12-28T08:58:56;13.52;;;8.95;;
24084;SDS011;12268;52.110;5.548;2022-12-28T09:01:24;13.23;;;8.95;;
24084;SDS011;12268;52.110;5.548;2022-12-28T09:03:55;17.00;;;9.43;;
24084;SDS011;12268;52.110;5.548;2022-12-28T09:06:25;14.38;;;9.63;;
24084;SDS011;12268;52.110;5.548;2022-12-28T09:08:55;13.60;;;9.80;;
24084;SDS011;12268;52.110;5.548;2022-12-28T09:11:22;14.57;;;9.38;;
24084;SDS011;12268;52.110;5.548;2022-12-28T09:13:48;19.63;;;9.73;;
24084;SDS011;12268;52.110;5.548;2022-12-28T09:16:14;13.27;;;9.43;;
24084;SDS011;12268;52.110;5.548;2022-12-28T09:18:42;18.45;;;9.73;;
24084;SDS011;12268;52.110;5.548;2022-12-28T09:21:14;13.88;;;9.55;;
24084;SDS011;12268;52.110;5.548;2022-12-28T09:23:42;17.45;;;9.43;;
24084;SDS011;12268;52.110;5.548;2022-12-28T09:26:12;15.68;;;9.43;;
24084;SDS011;12268;52.110;5.548;2022-12-28T09:28:46;15.15;;;9.32;;
24084;SDS011;12268;52.110;5.548;2022-12-28T09:31:13;12.70;;;8.20;;
24084;SDS011;12268;52.110;5.548;2022-12-28T09:33:39;16.73;;;8.75;;
24084;SDS011;12268;52.110;5.548;2022-12-28T09:36:25;13.18;;;8.90;;
24084;SDS011;12268;52.110;5.548;2022-12-28T09:38:51;15.35;;;9.23;;
24084;SDS011;12268;52.110;5.548;2022-12-28T09:41:21;15.50;;;9.40;;
24084;SDS011;12268;52.110;5.548;2022-12-28T09:43:50;12.63;;;8.52;;
24084;SDS011;12268;52.110;5.548;2022-12-28T09:46:57;14.45;;;9.40;;
24084;SDS011;12268;52.110;5.548;2022-12-28T09:49:37;13.40;;;8.55;;
24084;SDS011;12268;52.110;5.548;2022-12-28T09:52:23;14.45;;;9.07;;
24084;SDS011;12268;52.110;5.548;2022-12-28T09:54:54;15.10;;;8.85;;
24084;SDS011;12268;52.110;5.548;2022-12-28T09:57:23;14.63;;;8.63;;
24084;SDS011;12268;52.110;5.548;2022-12-28T09:59:54;15.13;;;8.65;;
24084;SDS011;12268;52.110;5.548;2022-12-28T10:02:27;13.20;;;8.27;;
24084;SDS011;12268;52.110;5.548;2022-12-28T10:04:56;15.27;;;7.95;;
24084;SDS011;12268;52.110;5.548;2022-12-28T10:07:22;12.73;;;7.22;;
24084;SDS011;12268;52.110;5.548;2022-12-28T10:09:47;13.13;;;7.03;;
24084;SDS011;12268;52.110;5.548;2022-12-28T10:12:15;13.50;;;7.38;;
24084;SDS011;12268;52.110;5.548;2022-12-28T10:14:46;14.88;;;6.47;;
24084;SDS011;12268;52.110;5.548;2022-12-28T10:17:13;12.18;;;6.80;;
24084;SDS011;12268;52.110;5.548;2022-12-28T10:19:40;12.63;;;7.05;;
24084;SDS011;12268;52.110;5.548;2022-12-28T10:22:10;8.45;;;6.47;;
24084;SDS011;12268;52.110;5.548;2022-12-28T10:24:42;13.98;;;7.18;;
24084;SDS011;12268;52.110;5.548;2022-12-28T10:27:17;12.15;;;6.47;;
24084;SDS011;12268;52.110;5.548;2022-12-28T10:29:51;9.45;;;5.18;;
24084;SDS011;12268;52.110;5.548;2022-12-28T10:32:18;12.48;;;7.20;;
24084;SDS011;12268;52.110;5.548;2022-12-28T10:34:52;14.90;;;6.82;;
24084;SDS011;12268;52.110;5.548;2022-12-28T10:37:18;12.40;;;7.20;;
24084;SDS011;12268;52.110;5.548;2022-12-28T10:39:46;13.20;;;7.13;;
24084;SDS011;12268;52.110;5.548;2022-12-28T10:42:25;14.00;;;6.75;;
24084;SDS011;12268;52.110;5.548;2022-12-28T10:45:01;11.35;;;5.60;;
24084;SDS011;12268;52.110;5.548;2022-12-28T10:47:33;13.07;;;6.65;;
24084;SDS011;12268;52.110;5.548;2022-12-28T10:50:05;8.77;;;6.60;;
24084;SDS011;12268;52.110;5.548;2022-12-28T10:52:31;12.80;;;6.10;;
24084;SDS011;12268;52.110;5.548;2022-12-28T10:54:56;11.85;;;6.75;;
24084;SDS011;12268;52.110;5.548;2022-12-28T10:59:50;10.43;;;6.70;;
24084;SDS011;12268;52.110;5.548;2022-12-28T11:04:52;10.32;;;5.65;;
24084;SDS011;12268;52.110;5.548;2022-12-28T11:07:25;9.15;;;4.50;;
24084;SDS011;12268;52.110;5.548;2022-12-28T11:09:53;7.53;;;5.53;;
24084;SDS011;12268;52.110;5.548;2022-12-28T11:12:22;7.22;;;4.95;;
24084;SDS011;12268;52.110;5.548;2022-12-28T11:14:50;7.57;;;4.88;;
24084;SDS011;12268;52.110;5.548;2022-12-28T11:17:20;8.00;;;4.78;;
24084;SDS011;12268;52.110;5.548;2022-12-28T11:19:48;8.35;;;3.90;;
24084;SDS011;12268;52.110;5.548;2022-12-28T11:22:23;9.52;;;5.15;;
24084;SDS011;12268;52.110;5.548;2022-12-28T11:24:51;5.65;;;3.90;;
24084;SDS011;12268;52.110;5.548;2022-12-28T11:27:17;5.20;;;3.92;;
24084;SDS011;12268;52.110;5.548;2022-12-28T11:29:45;5.95;;;3.53;;
24084;SDS011;12268;52.110;5.548;2022-12-28T11:32:17;7.22;;;3.65;;
24084;SDS011;12268;52.110;5.548;2022-12-28T11:34:48;6.20;;;4.28;;
24084;SDS011;12268;52.110;5.548;2022-12-28T11:37:14;6.25;;;3.80;;
24084;SDS011;12268;52.110;5.548;2022-12-28T11:39:41;4.85;;;3.17;;
24084;SDS011;12268;52.110;5.548;2022-12-28T11:45:00;9.43;;;3.80;;
24084;SDS011;12268;52.110;5.548;2022-12-28T11:47:30;6.07;;;3.95;;
24084;SDS011;12268;52.110;5.548;2022-12-28T11:53:00;5.15;;;3.58;;
24084;SDS011;12268;52.110;5.548;2022-12-28T11:55:35;4.93;;;3.75;;
24084;SDS011;12268;52.110;5.548;2022-12-28T12:00:52;6.72;;;4.22;;
24084;SDS011;12268;52.110;5.548;2022-12-28T12:03:18;5.13;;;3.60;;
24084;SDS011;12268;52.110;5.548;2022-12-28T12:05:48;8.10;;;4.15;;
24084;SDS011;12268;52.110;5.548;2022-12-28T12:10:41;6.05;;;3.78;;
24084;SDS011;12268;52.110;5.548;2022-12-28T12:15:55;5.03;;;3.63;;
24084;SDS011;12268;52.110;5.548;2022-12-28T12:18:25;4.60;;;3.60;;
24084;SDS011;12268;52.110;5.548;2022-12-28T12:20:54;10.25;;;4.13;;
24084;SDS011;12268;52.110;5.548;2022-12-28T12:28:53;7.15;;;3.83;;
24084;SDS011;12268;52.110;5.548;2022-12-28T12:31:29;5.38;;;3.40;;
24084;SDS011;12268;52.110;5.548;2022-12-28T12:34:02;6.70;;;4.28;;
24084;SDS011;12268;52.110;5.548;2022-12-28T12:39:13;8.77;;;4.78;;
24084;SDS011;12268;52.110;5.548;2022-12-28T12:50:11;8.63;;;4.40;;
24084;SDS011;12268;52.110;5.548;2022-12-28T12:55:45;15.00;;;4.25;;
24084;SDS011;12268;52.110;5.548;2022-12-28T12:58:31;6.85;;;4.40;;
24084;SDS011;12268;52.110;5.548;2022-12-28T13:01:17;9.48;;;4.40;;
24084;SDS011;12268;52.110;5.548;2022-12-28T13:04:19;9.25;;;4.28;;
24084;SDS011;12268;52.110;5.548;2022-12-28T13:06:51;10.95;;;4.32;;
24084;SDS011;12268;52.110;5.548;2022-12-28T13:09:22;7.95;;;4.60;;
24084;SDS011;12268;52.110;5.548;2022-12-28T13:11:50;6.75;;;4.30;;
24084;SDS011;12268;52.110;5.548;2022-12-28T13:14:16;5.57;;;3.47;;
24084;SDS011;12268;52.110;5.548;2022-12-28T13:16:49;9.55;;;3.90;;
24084;SDS011;12268;52.110;5.548;2022-12-28T13:21:47;9.10;;;3.10;;
24084;SDS011;12268;52.110;5.548;2022-12-28T13:24:17;7.70;;;3.72;;
24084;SDS011;12268;52.110;5.548;2022-12-28T13:26:46;6.88;;;3.88;;
24084;SDS011;12268;52.110;5.548;2022-12-28T13:29:14;9.23;;;3.88;;
24084;SDS011;12268;52.110;5.548;2022-12-28T13:31:47;6.57;;;4.30;;
24084;SDS011;12268;52.110;5.548;2022-12-28T13:34:29;9.00;;;4.80;;
24084;SDS011;12268;52.110;5.548;2022-12-28T13:37:00;9.90;;;4.53;;
24084;SDS011;12268;52.110;5.548;2022-12-28T13:39:28;10.63;;;4.35;;
24084;SDS011;12268;52.110;5.548;2022-12-28T13:41:59;9.65;;;5.03;;
24084;SDS011;12268;52.110;5.548;2022-12-28T13:49:38;11.07;;;5.05;;
24084;SDS011;12268;52.110;5.548;2022-12-28T13:52:11;7.28;;;4.80;;
24084;SDS011;12268;52.110;5.548;2022-12-28T13:54:44;11.43;;;4.30;;
24084;SDS011;12268;52.110;5.548;2022-12-28T13:57:14;10.23;;;4.93;;
24084;SDS011;12268;52.110;5.548;2022-12-28T13:59:42;9.32;;;4.80;;
24084;SDS011;12268;52.110;5.548;2022-12-28T14:02:12;7.82;;;4.15;;
24084;SDS011;12268;52.110;5.548;2022-12-28T14:04:43;11.63;;;5.25;;
24084;SDS011;12268;52.110;5.548;2022-12-28T14:07:13;8.40;;;5.35;;
24084;SDS011;12268;52.110;5.548;2022-12-28T14:09:42;7.60;;;4.70;;
24084;SDS011;12268;52.110;5.548;2022-12-28T14:12:10;11.73;;;4.35;;
24084;SDS011;12268;52.110;5.548;2022-12-28T14:14:36;9.20;;;4.88;;
24084;SDS011;12268;52.110;5.548;2022-12-28T14:17:03;13.18;;;4.75;;
24084;SDS011;12268;52.110;5.548;2022-12-28T14:19:30;7.30;;;4.32;;
24084;SDS011;12268;52.110;5.548;2022-12-28T14:21:57;8.60;;;4.13;;
24084;SDS011;12268;52.110;5.548;2022-12-28T14:24:22;10.38;;;4.20;;
24084;SDS011;12268;52.110;5.548;2022-12-28T14:26:50;11.52;;;4.75;;
24084;SDS011;12268;52.110;5.548;2022-12-28T14:29:23;8.18;;;3.90;;
24084;SDS011;12268;52.110;5.548;2022-12-28T14:31:54;6.60;;;3.90;;
24084;SDS011;12268;52.110;5.548;2022-12-28T14:34:23;7.68;;;3.47;;
24084;SDS011;12268;52.110;5.548;2022-12-28T14:36:54;11.13;;;4.65;;
24084;SDS011;12268;52.110;5.548;2022-12-28T14:39:30;6.90;;;3.45;;
24084;SDS011;12268;52.110;5.548;2022-12-28T14:42:01;5.28;;;2.88;;
24084;SDS011;12268;52.110;5.548;2022-12-28T14:44:36;7.05;;;3.78;;
24084;SDS011;12268;52.110;5.548;2022-12-28T14:49:59;8.77;;;3.53;;
24084;SDS011;12268;52.110;5.548;2022-12-28T14:54:52;11.38;;;3.45;;
24084;SDS011;12268;52.110;5.548;2022-12-28T15:00:00;7.78;;;3.08;;
24084;SDS011;12268;52.110;5.548;2022-12-28T15:04:59;6.65;;;3.47;;
24084;SDS011;12268;52.110;5.548;2022-12-28T15:07:29;5.10;;;2.95;;
24084;SDS011;12268;52.110;5.548;2022-12-28T15:09:55;6.88;;;3.05;;
24084;SDS011;12268;52.110;5.548;2022-12-28T15:12:21;10.27;;;3.05;;
24084;SDS011;12268;52.110;5.548;2022-12-28T15:14:49;5.47;;;3.00;;
24084;SDS011;12268;52.110;5.548;2022-12-28T15:17:15;6.68;;;3.00;;
24084;SDS011;12268;52.110;5.548;2022-12-28T15:19:41;9.05;;;3.03;;
24084;SDS011;12268;52.110;5.548;2022-12-28T15:22:08;9.57;;;3.72;;
24084;SDS011;12268;52.110;5.548;2022-12-28T15:24:34;9.18;;;2.90;;
24084;SDS011;12268;52.110;5.548;2022-12-28T15:27:01;7.28;;;3.22;;
24084;SDS011;12268;52.110;5.548;2022-12-28T15:29:27;4.78;;;2.90;;
24084;SDS011;12268;52.110;5.548;2022-12-28T15:31:53;8.25;;;3.13;;
24084;SDS011;12268;52.110;5.548;2022-12-28T15:34:18;7.10;;;2.80;;
24084;SDS011;12268;52.110;5.548;2022-12-28T15:36:44;4.13;;;2.80;;
24084;SDS011;12268;52.110;5.548;2022-12-28T15:39:11;6.60;;;2.90;;
24084;SDS011;12268;52.110;5.548;2022-12-28T15:41:37;6.22;;;3.00;;
24084;SDS011;12268;52.110;5.548;2022-12-28T15:44:12;10.15;;;3.20;;
24084;SDS011;12268;52.110;5.548;2022-12-28T15:46:39;9.13;;;2.78;;
24084;SDS011;12268;52.110;5.548;2022-12-28T15:49:05;5.50;;;3.63;;
24084;SDS011;12268;52.110;5.548;2022-12-28T15:51:31;10.13;;;2.92;;
24084;SDS011;12268;52.110;5.548;2022-12-28T15:53:57;6.53;;;2.90;;
24084;SDS011;12268;52.110;5.548;2022-12-28T15:56:24;4.53;;;2.45;;
24084;SDS011;12268;52.110;5.548;2022-12-28T15:58:54;7.50;;;2.58;;
24084;SDS011;12268;52.110;5.548;2022-12-28T16:01:22;4.97;;;2.30;;
24084;SDS011;12268;52.110;5.548;2022-12-28T16:03:49;8.52;;;3.22;;
24084;SDS011;12268;52.110;5.548;2022-12-28T16:06:19;5.80;;;2.53;;
24084;SDS011;12268;52.110;5.548;2022-12-28T16:08:46;3.70;;;1.98;;
24084;SDS011;12268;52.110;5.548;2022-12-28T16:11:14;5.30;;;2.45;;
24084;SDS011;12268;52.110;5.548;2022-12-28T16:13:41;6.80;;;2.42;;
24084;SDS011;12268;52.110;5.548;2022-12-28T16:16:07;5.97;;;3.00;;
24084;SDS011;12268;52.110;5.548;2022-12-28T16:18:37;6.55;;;2.90;;